Grafton, Virginia
Current Conditions -  °F | °C
As of 10:54 PM on Saturday 20 Dec 2014 (Local Time) from KPHF Reporting Station
Clear Clear  
Wind Chill: 34°   Ceiling: Unl
Heat Index: 34°   Visibility: 10mi
Dew Point: 27°   Wind: 3mph
Humidity: 75%   Direction: 330°NNW
Pressure: 30.31"   Gusts: NA
Location:  37.1781°N, 76.4669°W
Report Text: KPHF 210354Z 33003KT 10SM CLR 01/M03 A3031 RMK AO2 SLP262 T00111028
Loading
Personal Weather Stations






























Interactive Weather Map New forecast layout! Learn more

10-Day Weather Forecast

Advertisements
Track Severe Weather on mobile